Pittsburgh, Pennsylvania
Traffic Map
Current Weather Conditions
Pittsburgh, Pennsylvania
Clear
Clear
28°
Feels Like: 31°
Wind Chill: 28° Ceiling: Unl
Heat Index: 31° Visibility: 9mi
Dew Point: 22° Wind: 3mph
Humidity: 67% Direction: 170° (S)
Pressure: 30.05in Gusts: 0mph
Raw Report DataKAGC 241453Z 17003KT 9SM CLR 28/22 A3005 RMK AO2 SLP168 T02830217 52004 $
Traffic Incident Summary
Active as of:
Severity:
Category:
InformationThere was an issue retrieving the traffic information for this location. Please try a different location or try again shortly.
Advertisements
Track Severe Weather on mobile